Time;durP1;ratioP1;P1;durP2;ratioP2;P2;SDS_P1;SDS_P2;PMS_P1;PMS_P2;Temp;Humidity;BMP_temperature;BMP_pressure;BME280_temperature;BME280_humidity;BME280_pressure;Samples;Min_cycle;Max_cycle;Signal;HPM_P1;HPM_P2
2023/03/15 00:01:37;;;;;;;7.78;1.92;;;;;;;;;;5009091;28;20042;-53
2023/03/15 00:04:04;;;;;;;3.65;1.52;;;;;;;;;;5009275;28;20034;-53
2023/03/15 00:06:33;;;;;;;3.95;1.40;;;;;;;;;;5008576;28;20554;-54
2023/03/15 00:09:00;;;;;;;4.50;1.60;;;;;;;;;;5008992;28;20037;-53
2023/03/15 00:11:27;;;;;;;2.28;1.60;;;;;;;;;;5000557;28;20117;-55
2023/03/15 00:13:52;;;;;;;5.13;1.83;;;;;;;;;;4997934;28;20030;-54
2023/03/15 00:16:18;;;;;;;3.45;1.40;;;;;;;;;;5004767;28;20038;-54
2023/03/15 00:18:45;;;;;;;6.70;1.70;;;;;;;;;;4997060;28;20044;-54
2023/03/15 00:21:11;;;;;;;3.58;1.60;;;;;;;;;;5000336;28;20042;-55
2023/03/15 00:23:37;;;;;;;3.78;1.80;;;;;;;;;;5009065;28;20029;-54
2023/03/15 00:26:03;;;;;;;5.85;2.25;;;;;;;;;;5004250;28;20030;-55
2023/03/15 00:28:28;;;;;;;2.58;1.10;;;;;;;;;;5010162;28;20033;-51
2023/03/15 00:31:03;;;;;;;8.82;2.10;;;;;;;;;;5002404;28;20042;-53
2023/03/15 00:33:33;;;;;;;6.72;2.00;;;;;;;;;;4996321;28;20499;-54
2023/03/15 00:36:02;;;;;;;2.80;1.98;;;;;;;;;;5005386;28;20048;-53
2023/03/15 00:38:28;;;;;;;6.75;1.95;;;;;;;;;;5002178;28;20034;-53
2023/03/15 00:40:53;;;;;;;4.63;1.73;;;;;;;;;;5008523;28;20041;-53
2023/03/15 00:43:18;;;;;;;5.03;1.52;;;;;;;;;;5006071;28;20033;-52
2023/03/15 00:45:44;;;;;;;4.90;1.83;;;;;;;;;;4999360;28;20477;-53
2023/03/15 00:48:09;;;;;;;4.03;2.10;;;;;;;;;;5007417;28;20041;-54
2023/03/15 00:50:34;;;;;;;5.03;2.03;;;;;;;;;;5008125;28;20030;-52
2023/03/15 00:53:00;;;;;;;7.18;1.88;;;;;;;;;;5006403;28;20030;-53
2023/03/15 00:55:25;;;;;;;6.95;2.30;;;;;;;;;;5005074;28;20077;-54
2023/03/15 00:57:51;;;;;;;9.20;2.10;;;;;;;;;;5007434;28;20591;-54
2023/03/15 01:00:22;;;;;;;3.58;1.95;;;;;;;;;;5007167;28;20040;-52
2023/03/15 01:02:48;;;;;;;6.30;2.00;;;;;;;;;;5004805;28;20045;-52
2023/03/15 01:05:13;;;;;;;3.97;1.85;;;;;;;;;;5006294;28;20422;-50
2023/03/15 01:07:38;;;;;;;6.32;2.88;;;;;;;;;;5006782;28;20511;-53
2023/03/15 01:10:05;;;;;;;3.10;1.75;;;;;;;;;;5007482;28;20042;-53
2023/03/15 01:12:31;;;;;;;3.75;2.33;;;;;;;;;;5001890;28;20069;-52
2023/03/15 01:14:57;;;;;;;3.88;2.25;;;;;;;;;;5004799;28;20037;-54
2023/03/15 01:17:22;;;;;;;4.00;1.90;;;;;;;;;;4999735;28;20085;-52
2023/03/15 01:19:48;;;;;;;5.10;2.35;;;;;;;;;;4997049;28;20046;-51
2023/03/15 01:22:13;;;;;;;6.47;2.45;;;;;;;;;;5006937;28;20034;-54
2023/03/15 01:24:39;;;;;;;4.93;2.00;;;;;;;;;;5010485;28;20036;-53
2023/03/15 01:27:04;;;;;;;6.55;2.25;;;;;;;;;;5011293;28;20049;-53
2023/03/15 01:29:29;;;;;;;6.35;2.67;;;;;;;;;;5006701;28;20033;-54
2023/03/15 01:31:54;;;;;;;8.43;2.30;;;;;;;;;;5007609;28;20018;-53
2023/03/15 01:34:20;;;;;;;5.18;2.13;;;;;;;;;;5007604;28;20057;-54
2023/03/15 01:36:49;;;;;;;6.15;2.03;;;;;;;;;;5008190;28;20037;-53
2023/03/15 01:39:14;;;;;;;5.30;2.30;;;;;;;;;;5005567;28;20054;-54
2023/03/15 01:41:39;;;;;;;8.65;2.38;;;;;;;;;;4998118;28;20035;-51
2023/03/15 01:44:11;;;;;;;9.32;3.65;;;;;;;;;;5002595;28;20030;-52
2023/03/15 01:46:36;;;;;;;8.00;2.28;;;;;;;;;;5006144;28;20034;-53
2023/03/15 01:49:16;;;;;;;5.13;2.10;;;;;;;;;;5007371;28;20081;-53
2023/03/15 01:52:04;;;;;;;6.78;2.10;;;;;;;;;;5007258;28;20388;-51
2023/03/15 01:54:36;;;;;;;8.55;2.65;;;;;;;;;;5002144;28;20049;-52
2023/03/15 01:57:25;;;;;;;3.55;2.10;;;;;;;;;;5006467;28;20511;-54
2023/03/15 01:59:57;;;;;;;5.53;2.38;;;;;;;;;;5007212;28;20546;-51
2023/03/15 02:02:24;;;;;;;6.03;2.42;;;;;;;;;;4990957;28;20017;-53
2023/03/15 02:04:58;;;;;;;8.05;2.60;;;;;;;;;;4992861;28;20053;-51
2023/03/15 02:07:26;;;;;;;6.80;2.47;;;;;;;;;;5006140;28;20158;-54
2023/03/15 02:10:01;;;;;;;6.70;2.50;;;;;;;;;;5007426;28;20045;-54
2023/03/15 02:12:29;;;;;;;8.48;2.15;;;;;;;;;;5001230;28;20046;-52
2023/03/15 02:14:56;;;;;;;3.58;1.90;;;;;;;;;;5005876;28;20034;-50
2023/03/15 02:17:32;;;;;;;7.97;2.08;;;;;;;;;;5007021;28;20054;-53
2023/03/15 02:20:16;;;;;;;7.90;2.20;;;;;;;;;;4995598;28;20104;-52
2023/03/15 02:23:00;;;;;;;5.35;1.63;;;;;;;;;;5006407;28;20041;-49
2023/03/15 02:25:47;;;;;;;5.25;1.83;;;;;;;;;;5004358;28;20038;-52
2023/03/15 02:28:14;;;;;;;4.55;1.45;;;;;;;;;;5005569;28;20125;-51
2023/03/15 02:30:40;;;;;;;6.80;1.70;;;;;;;;;;5006535;28;20034;-52
2023/03/15 02:33:12;;;;;;;8.43;1.60;;;;;;;;;;5004638;28;20045;-52
2023/03/15 02:35:37;;;;;;;3.53;1.25;;;;;;;;;;5006119;28;20029;-53
2023/03/15 02:38:02;;;;;;;7.45;1.77;;;;;;;;;;5007497;28;20026;-49
2023/03/15 02:40:30;;;;;;;9.55;1.77;;;;;;;;;;5005635;28;20065;-52
2023/03/15 02:43:04;;;;;;;11.07;1.40;;;;;;;;;;5005871;28;20199;-50
2023/03/15 02:45:31;;;;;;;2.47;1.05;;;;;;;;;;5005051;28;20499;-51
2023/03/15 02:47:57;;;;;;;3.13;1.02;;;;;;;;;;5005874;28;20464;-52
2023/03/15 02:50:22;;;;;;;1.98;0.80;;;;;;;;;;5005023;28;20503;-54
2023/03/15 02:52:47;;;;;;;1.73;0.95;;;;;;;;;;5005970;28;20052;-50
2023/03/15 02:55:13;;;;;;;3.13;1.00;;;;;;;;;;5005716;28;20718;-51
2023/03/15 02:57:38;;;;;;;6.78;1.40;;;;;;;;;;5006260;28;20084;-53
2023/03/15 03:00:12;;;;;;;7.07;1.17;;;;;;;;;;5006310;28;20048;-51
2023/03/15 03:02:38;;;;;;;2.63;0.88;;;;;;;;;;4999473;28;20029;-52
2023/03/15 03:05:04;;;;;;;9.90;1.67;;;;;;;;;;5006853;28;20569;-53
2023/03/15 03:07:29;;;;;;;3.38;1.77;;;;;;;;;;5005901;28;20528;-53
2023/03/15 03:09:55;;;;;;;4.25;1.40;;;;;;;;;;5005578;28;20062;-53
2023/03/15 03:12:20;;;;;;;10.90;1.52;;;;;;;;;;5004449;28;20132;-52
2023/03/15 03:14:45;;;;;;;3.28;1.67;;;;;;;;;;5005055;28;20044;-52
2023/03/15 03:17:11;;;;;;;6.07;1.60;;;;;;;;;;5006402;28;20057;-52
2023/03/15 03:19:36;;;;;;;9.32;1.77;;;;;;;;;;5005631;28;20045;-54
2023/03/15 03:22:01;;;;;;;4.80;1.48;;;;;;;;;;5003998;28;20046;-51
2023/03/15 03:24:28;;;;;;;8.23;2.20;;;;;;;;;;5004145;28;20045;-52
2023/03/15 03:26:56;;;;;;;3.15;1.77;;;;;;;;;;5004910;28;20050;-55
2023/03/15 03:29:23;;;;;;;8.35;2.45;;;;;;;;;;5006392;28;20037;-52
2023/03/15 03:31:48;;;;;;;5.28;1.80;;;;;;;;;;5009283;28;20042;-52
2023/03/15 03:34:14;;;;;;;5.20;1.80;;;;;;;;;;5003112;28;20041;-54
2023/03/15 03:36:41;;;;;;;3.88;1.70;;;;;;;;;;4999573;28;20397;-54
2023/03/15 03:39:06;;;;;;;9.43;2.35;;;;;;;;;;5010033;28;20045;-53
2023/03/15 03:41:32;;;;;;;11.07;2.20;;;;;;;;;;5007955;28;20100;-54
2023/03/15 03:43:57;;;;;;;8.25;2.00;;;;;;;;;;5009102;28;20030;-51
2023/03/15 03:46:22;;;;;;;5.78;2.22;;;;;;;;;;5009525;28;20037;-53
2023/03/15 03:48:48;;;;;;;5.85;2.38;;;;;;;;;;5008596;28;20133;-53
2023/03/15 03:51:13;;;;;;;9.35;2.35;;;;;;;;;;5009491;28;20049;-52
2023/03/15 03:53:38;;;;;;;4.88;2.17;;;;;;;;;;5008768;28;20036;-53
2023/03/15 03:56:07;;;;;;;4.75;1.98;;;;;;;;;;5008877;28;20033;-52
2023/03/15 03:58:33;;;;;;;7.13;2.63;;;;;;;;;;5009564;28;20570;-53
2023/03/15 04:00:58;;;;;;;11.55;3.00;;;;;;;;;;5008460;28;20038;-53
2023/03/15 04:03:26;;;;;;;6.97;2.15;;;;;;;;;;5008879;28;20766;-54
2023/03/15 04:05:56;;;;;;;15.57;2.72;;;;;;;;;;5008740;28;20124;-53
2023/03/15 04:08:23;;;;;;;8.73;3.17;;;;;;;;;;5009285;28;20491;-53
2023/03/15 04:10:50;;;;;;;7.78;2.95;;;;;;;;;;5009015;28;20089;-52
2023/03/15 04:13:15;;;;;;;6.82;2.90;;;;;;;;;;5006749;28;20380;-55
2023/03/15 04:15:41;;;;;;;11.55;3.97;;;;;;;;;;5008546;28;20773;-51
2023/03/15 04:18:06;;;;;;;13.02;3.63;;;;;;;;;;5008675;28;20045;-54
2023/03/15 04:20:34;;;;;;;11.68;3.28;;;;;;;;;;4998135;28;20091;-53
2023/03/15 04:23:00;;;;;;;10.05;3.40;;;;;;;;;;5008975;28;20022;-53
2023/03/15 04:25:25;;;;;;;8.18;2.78;;;;;;;;;;5008194;28;20041;-53
2023/03/15 04:27:57;;;;;;;6.35;2.65;;;;;;;;;;5007729;28;20046;-54
2023/03/15 04:30:26;;;;;;;10.10;3.33;;;;;;;;;;5008387;28;20034;-54
2023/03/15 04:33:02;;;;;;;6.22;3.35;;;;;;;;;;5008313;28;20421;-53
2023/03/15 04:35:29;;;;;;;8.55;3.08;;;;;;;;;;5008497;28;20052;-53
2023/03/15 04:37:55;;;;;;;10.60;3.95;;;;;;;;;;5006374;28;20459;-53
2023/03/15 04:40:22;;;;;;;9.40;3.47;;;;;;;;;;5008019;28;20034;-52
2023/03/15 04:42:54;;;;;;;7.65;3.58;;;;;;;;;;5007766;28;20038;-53
2023/03/15 04:45:20;;;;;;;11.40;3.70;;;;;;;;;;5008023;28;20543;-54
2023/03/15 04:47:45;;;;;;;13.82;3.22;;;;;;;;;;5008040;28;20030;-54
2023/03/15 04:50:12;;;;;;;9.85;4.32;;;;;;;;;;5008065;28;20554;-54
2023/03/15 04:52:37;;;;;;;7.07;3.40;;;;;;;;;;5006603;28;20454;-53
2023/03/15 04:55:03;;;;;;;10.80;3.85;;;;;;;;;;5007606;28;20679;-52
2023/03/15 04:57:28;;;;;;;11.48;4.03;;;;;;;;;;5008176;28;20038;-53
2023/03/15 04:59:55;;;;;;;8.50;4.00;;;;;;;;;;5007487;28;20046;-52
2023/03/15 05:02:21;;;;;;;10.88;3.60;;;;;;;;;;5006969;28;20076;-53
2023/03/15 05:04:46;;;;;;;9.13;3.70;;;;;;;;;;5003451;28;20046;-54
2023/03/15 05:07:11;;;;;;;15.90;4.38;;;;;;;;;;5002681;28;20045;-54
2023/03/15 05:09:37;;;;;;;9.50;3.88;;;;;;;;;;5007368;28;20416;-53
2023/03/15 05:12:06;;;;;;;12.82;4.88;;;;;;;;;;5002068;28;20042;-50
2023/03/15 05:14:32;;;;;;;9.13;3.38;;;;;;;;;;5000525;28;20036;-55
2023/03/15 05:16:58;;;;;;;15.98;4.18;;;;;;;;;;5002834;28;20018;-51
2023/03/15 05:19:24;;;;;;;13.63;3.90;;;;;;;;;;4999971;28;20186;-55
2023/03/15 05:21:50;;;;;;;13.75;4.47;;;;;;;;;;4999686;28;20121;-53
2023/03/15 05:24:15;;;;;;;12.00;4.38;;;;;;;;;;4999224;28;20483;-53
2023/03/15 05:26:40;;;;;;;14.00;4.63;;;;;;;;;;5005420;28;20022;-53
2023/03/15 05:29:05;;;;;;;9.95;3.88;;;;;;;;;;5008200;28;20033;-50
2023/03/15 05:31:35;;;;;;;12.20;4.38;;;;;;;;;;5006400;28;20034;-53
2023/03/15 05:34:03;;;;;;;11.85;4.30;;;;;;;;;;5007784;28;20038;-53
2023/03/15 05:36:29;;;;;;;10.07;4.15;;;;;;;;;;5006146;28;20090;-52
2023/03/15 05:38:54;;;;;;;3.58;2.17;;;;;;;;;;5006741;28;20061;-54
2023/03/15 05:41:19;;;;;;;7.05;2.28;;;;;;;;;;5008248;28;20049;-51
2023/03/15 05:43:44;;;;;;;11.75;3.28;;;;;;;;;;4995898;28;20147;-53
2023/03/15 05:46:10;;;;;;;5.70;2.70;;;;;;;;;;4995299;28;20431;-53
2023/03/15 05:48:35;;;;;;;4.38;2.28;;;;;;;;;;5007136;28;20042;-54
2023/03/15 05:51:00;;;;;;;3.85;2.35;;;;;;;;;;5006647;28;20159;-53
2023/03/15 05:53:26;;;;;;;7.05;3.03;;;;;;;;;;4992267;28;20030;-54
2023/03/15 05:55:51;;;;;;;4.22;2.63;;;;;;;;;;5006858;28;20041;-54
2023/03/15 05:58:16;;;;;;;5.82;2.55;;;;;;;;;;5006352;28;20050;-53
2023/03/15 06:00:42;;;;;;;6.68;2.28;;;;;;;;;;5006130;28;20431;-53
2023/03/15 06:03:07;;;;;;;3.45;2.28;;;;;;;;;;5006696;28;20030;-53
2023/03/15 06:05:32;;;;;;;3.78;2.03;;;;;;;;;;5002531;28;20109;-50
2023/03/15 06:07:57;;;;;;;8.38;2.70;;;;;;;;;;4996041;28;20036;-51
2023/03/15 06:10:23;;;;;;;6.82;2.70;;;;;;;;;;4983575;28;20419;-53
2023/03/15 06:12:49;;;;;;;6.15;2.33;;;;;;;;;;5001089;28;20084;-53
2023/03/15 06:15:14;;;;;;;5.22;2.40;;;;;;;;;;5002095;28;20042;-54
2023/03/15 06:17:39;;;;;;;7.90;2.08;;;;;;;;;;4994548;28;20092;-52
2023/03/15 06:20:05;;;;;;;4.60;2.13;;;;;;;;;;4994373;28;20450;-54
2023/03/15 06:22:31;;;;;;;4.00;2.13;;;;;;;;;;5001167;28;20068;-55
2023/03/15 06:24:56;;;;;;;3.80;1.88;;;;;;;;;;5002308;28;20057;-54
2023/03/15 06:27:21;;;;;;;4.28;1.98;;;;;;;;;;4992897;28;20570;-53
2023/03/15 06:29:49;;;;;;;7.13;2.20;;;;;;;;;;5000210;28;20107;-54
2023/03/15 06:32:14;;;;;;;4.78;1.95;;;;;;;;;;5006431;28;20037;-54
2023/03/15 06:34:40;;;;;;;2.63;1.48;;;;;;;;;;5005216;28;20034;-53
2023/03/15 06:37:05;;;;;;;3.13;1.75;;;;;;;;;;4990796;28;20642;-53
2023/03/15 06:39:33;;;;;;;5.35;1.85;;;;;;;;;;5006931;28;20038;-54
2023/03/15 06:42:01;;;;;;;4.95;2.25;;;;;;;;;;5005738;28;20030;-52
2023/03/15 06:44:26;;;;;;;7.60;2.08;;;;;;;;;;5006364;28;20044;-53
2023/03/15 06:46:52;;;;;;;10.32;2.08;;;;;;;;;;5004948;28;20030;-53
2023/03/15 06:49:17;;;;;;;6.85;2.33;;;;;;;;;;4998866;28;20581;-53
2023/03/15 06:51:44;;;;;;;8.25;2.60;;;;;;;;;;4988479;28;20404;-54
2023/03/15 06:54:09;;;;;;;6.80;2.25;;;;;;;;;;4991203;28;20057;-55
2023/03/15 06:56:36;;;;;;;6.10;2.53;;;;;;;;;;4998121;28;20434;-54
2023/03/15 06:59:02;;;;;;;3.92;2.22;;;;;;;;;;5005264;28;20029;-55
2023/03/15 07:01:27;;;;;;;4.53;2.15;;;;;;;;;;4999085;28;20037;-53
2023/03/15 07:03:52;;;;;;;5.32;2.20;;;;;;;;;;4997194;28;20044;-55
2023/03/15 07:06:18;;;;;;;6.75;2.95;;;;;;;;;;5006362;28;20041;-53
2023/03/15 07:08:43;;;;;;;4.82;2.42;;;;;;;;;;5000994;28;20112;-53
2023/03/15 07:11:08;;;;;;;4.35;1.77;;;;;;;;;;5009524;28;20032;-55
2023/03/15 07:13:33;;;;;;;4.25;2.38;;;;;;;;;;5004216;28;20046;-54
2023/03/15 07:15:59;;;;;;;5.28;2.72;;;;;;;;;;5002840;28;20078;-51
2023/03/15 07:18:24;;;;;;;5.38;2.47;;;;;;;;;;4999725;28;20046;-54
2023/03/15 07:20:57;;;;;;;5.35;2.30;;;;;;;;;;4998359;28;20038;-54
2023/03/15 07:23:22;;;;;;;4.45;1.92;;;;;;;;;;5009267;28;20041;-54
2023/03/15 07:25:48;;;;;;;3.75;1.85;;;;;;;;;;5008854;28;20045;-55
2023/03/15 07:28:13;;;;;;;4.35;1.98;;;;;;;;;;5009057;28;20058;-53
2023/03/15 07:30:38;;;;;;;6.82;2.67;;;;;;;;;;5005774;28;20040;-54
2023/03/15 07:33:04;;;;;;;4.60;1.85;;;;;;;;;;5004071;28;20038;-55
2023/03/15 07:35:29;;;;;;;3.08;1.60;;;;;;;;;;5007674;28;20026;-52
2023/03/15 07:37:54;;;;;;;5.07;1.75;;;;;;;;;;5009796;28;20621;-53
2023/03/15 07:40:19;;;;;;;4.45;1.98;;;;;;;;;;5006861;28;20038;-56
2023/03/15 07:42:45;;;;;;;3.25;1.88;;;;;;;;;;5008204;28;20056;-54
2023/03/15 07:45:10;;;;;;;4.57;1.80;;;;;;;;;;5009032;28;20565;-67
2023/03/15 07:47:36;;;;;;;2.97;1.88;;;;;;;;;;5006965;28;20042;-67
2023/03/15 07:50:02;;;;;;;3.00;1.60;;;;;;;;;;5007729;28;20228;-67
2023/03/15 07:52:28;;;;;;;3.40;1.65;;;;;;;;;;5004331;28;20034;-67
2023/03/15 07:54:53;;;;;;;2.75;1.63;;;;;;;;;;5009590;28;20034;-67
2023/03/15 07:57:19;;;;;;;2.92;1.35;;;;;;;;;;5007778;28;20032;-67
2023/03/15 07:59:44;;;;;;;5.22;1.88;;;;;;;;;;5008768;28;20038;-67
2023/03/15 08:02:13;;;;;;;3.75;2.15;;;;;;;;;;5002532;28;20109;-67
2023/03/15 08:04:39;;;;;;;4.25;2.53;;;;;;;;;;5008429;28;20096;-67
2023/03/15 08:07:04;;;;;;;8.05;3.75;;;;;;;;;;5007247;28;20046;-67
2023/03/15 08:09:31;;;;;;;10.27;3.20;;;;;;;;;;5006915;28;20045;-67
2023/03/15 08:11:57;;;;;;;8.98;2.78;;;;;;;;;;5007431;28;20065;-67
2023/03/15 08:14:23;;;;;;;5.90;3.50;;;;;;;;;;5008816;28;20117;-67
2023/03/15 08:16:49;;;;;;;5.50;3.13;;;;;;;;;;5007344;28;20411;-67
2023/03/15 08:19:14;;;;;;;5.72;2.92;;;;;;;;;;5006553;28;20045;-68
2023/03/15 08:21:44;;;;;;;9.70;3.53;;;;;;;;;;5005384;28;20538;-67
2023/03/15 08:24:12;;;;;;;6.50;3.10;;;;;;;;;;5009142;28;20100;-67
2023/03/15 08:26:38;;;;;;;5.53;2.80;;;;;;;;;;5006546;28;20411;-67
2023/03/15 08:29:04;;;;;;;10.35;3.00;;;;;;;;;;5008977;28;20707;-67
2023/03/15 08:31:30;;;;;;;6.80;3.20;;;;;;;;;;5020556;28;20037;-67
2023/03/15 08:33:55;;;;;;;9.68;3.28;;;;;;;;;;4995822;28;20026;-67
2023/03/15 08:36:21;;;;;;;5.00;2.30;;;;;;;;;;5008521;28;20026;-67
2023/03/15 08:38:46;;;;;;;6.70;2.83;;;;;;;;;;5006827;28;20026;-67
2023/03/15 08:41:12;;;;;;;7.13;3.30;;;;;;;;;;5007528;28;20026;-67
2023/03/15 08:43:37;;;;;;;9.45;4.05;;;;;;;;;;5007535;28;20399;-67
2023/03/15 08:46:02;;;;;;;7.07;3.22;;;;;;;;;;5004356;28;20033;-67
2023/03/15 08:48:28;;;;;;;6.47;3.00;;;;;;;;;;5007660;28;20037;-67
2023/03/15 08:50:53;;;;;;;7.18;2.88;;;;;;;;;;5007371;28;20026;-67
2023/03/15 08:53:19;;;;;;;5.97;2.75;;;;;;;;;;5007873;28;20018;-67
2023/03/15 08:55:46;;;;;;;6.68;2.72;;;;;;;;;;5006942;28;20117;-67
2023/03/15 08:58:13;;;;;;;5.63;2.63;;;;;;;;;;5007536;28;20030;-67
2023/03/15 09:00:38;;;;;;;6.18;2.90;;;;;;;;;;5007363;28;20096;-67
2023/03/15 09:03:03;;;;;;;5.68;2.63;;;;;;;;;;5004777;28;20034;-67
2023/03/15 09:05:29;;;;;;;4.95;2.67;;;;;;;;;;5006862;28;20021;-67
2023/03/15 09:07:54;;;;;;;5.05;2.20;;;;;;;;;;5007755;28;20025;-67
2023/03/15 09:10:20;;;;;;;3.83;1.88;;;;;;;;;;5006548;28;20037;-67
2023/03/15 09:12:49;;;;;;;6.90;1.73;;;;;;;;;;5007329;28;20392;-67
2023/03/15 09:15:14;;;;;;;6.45;2.70;;;;;;;;;;5003775;28;20045;-67
2023/03/15 09:17:40;;;;;;;3.78;2.50;;;;;;;;;;4998657;28;20034;-67
2023/03/15 09:20:11;;;;;;;7.35;2.72;;;;;;;;;;4996809;28;20030;-67
2023/03/15 09:22:36;;;;;;;4.93;1.80;;;;;;;;;;5006958;28;20132;-67
2023/03/15 09:25:03;;;;;;;4.75;1.65;;;;;;;;;;5005913;28;20046;-67
2023/03/15 09:27:30;;;;;;;4.53;1.85;;;;;;;;;;5004167;28;20144;-67
2023/03/15 09:29:55;;;;;;;4.07;2.03;;;;;;;;;;5006296;28;20034;-67
2023/03/15 09:32:21;;;;;;;5.88;2.17;;;;;;;;;;5007637;28;20073;-67
2023/03/15 09:34:46;;;;;;;4.13;2.30;;;;;;;;;;5006655;28;20040;-67
2023/03/15 09:37:12;;;;;;;8.75;2.67;;;;;;;;;;5005478;28;20125;-67
2023/03/15 09:39:37;;;;;;;3.20;2.10;;;;;;;;;;5005610;28;20042;-67
2023/03/15 09:42:15;;;;;;;8.35;2.00;;;;;;;;;;5005580;28;20076;-67
2023/03/15 09:45:05;;;;;;;3.10;1.92;;;;;;;;;;5006677;28;20026;-66
2023/03/15 09:47:41;;;;;;;3.05;1.92;;;;;;;;;;5003714;28;20026;-67
2023/03/15 09:50:17;;;;;;;5.97;2.15;;;;;;;;;;5006159;28;20148;-67
2023/03/15 09:53:02;;;;;;;10.07;2.30;;;;;;;;;;5003827;28;20045;-66
2023/03/15 09:55:28;;;;;;;7.80;2.30;;;;;;;;;;5002158;28;20042;-66
2023/03/15 09:57:56;;;;;;;2.35;1.75;;;;;;;;;;5006830;28;20052;-67
2023/03/15 10:00:45;;;;;;;3.85;2.10;;;;;;;;;;5006784;28;20038;-66
2023/03/15 10:03:46;;;;;;;3.67;2.03;;;;;;;;;;5006664;28;20037;-67
2023/03/15 10:06:21;;;;;;;8.13;2.20;;;;;;;;;;4996840;28;20048;-67
2023/03/15 10:08:49;;;;;;;4.18;1.92;;;;;;;;;;5006316;28;20033;-67
2023/03/15 10:11:25;;;;;;;3.33;1.88;;;;;;;;;;5006579;28;20057;-67
2023/03/15 10:14:13;;;;;;;4.78;2.65;;;;;;;;;;5005338;28;20121;-67
2023/03/15 10:16:43;;;;;;;7.47;2.25;;;;;;;;;;5004988;28;20048;-67
2023/03/15 10:19:17;;;;;;;5.55;2.15;;;;;;;;;;5000036;28;20136;-67
2023/03/15 10:21:55;;;;;;;4.07;1.88;;;;;;;;;;5002080;28;20053;-67
2023/03/15 10:24:43;;;;;;;3.47;1.98;;;;;;;;;;4998206;28;20054;-67
2023/03/15 10:27:18;;;;;;;3.45;2.15;;;;;;;;;;5005928;28;20076;-67
2023/03/15 10:29:44;;;;;;;5.20;2.05;;;;;;;;;;5005669;28;20034;-67
2023/03/15 10:32:16;;;;;;;4.75;2.58;;;;;;;;;;5004336;28;20034;-67
2023/03/15 10:34:46;;;;;;;4.22;2.10;;;;;;;;;;5004986;28;20037;-66
2023/03/15 10:37:11;;;;;;;4.07;2.55;;;;;;;;;;5003419;28;20026;-67
2023/03/15 10:39:37;;;;;;;3.03;1.63;;;;;;;;;;5001025;28;20034;-67
2023/03/15 10:42:02;;;;;;;4.90;2.13;;;;;;;;;;5004193;28;20515;-67
2023/03/15 10:44:28;;;;;;;7.45;2.28;;;;;;;;;;5000381;28;20050;-67
2023/03/15 10:47:00;;;;;;;4.60;1.85;;;;;;;;;;5002138;28;20025;-67
2023/03/15 10:49:37;;;;;;;5.13;2.50;;;;;;;;;;5005250;28;20080;-67
2023/03/15 10:52:03;;;;;;;3.95;2.08;;;;;;;;;;5004498;28;20048;-67
2023/03/15 10:54:31;;;;;;;2.65;1.80;;;;;;;;;;4999381;28;20038;-67
2023/03/15 10:57:01;;;;;;;2.72;1.67;;;;;;;;;;5002570;28;20033;-67
2023/03/15 10:59:32;;;;;;;6.22;1.80;;;;;;;;;;5003334;28;20080;-67
2023/03/15 11:02:10;;;;;;;3.67;1.80;;;;;;;;;;5004480;28;20018;-67
2023/03/15 11:04:40;;;;;;;2.22;1.48;;;;;;;;;;5000812;28;20124;-67
2023/03/15 11:07:06;;;;;;;5.60;1.92;;;;;;;;;;4998949;28;20038;-67
2023/03/15 11:09:52;;;;;;;2.47;1.50;;;;;;;;;;4997436;28;20034;-67
2023/03/15 11:12:25;;;;;;;2.63;1.55;;;;;;;;;;5003477;28;20120;-66
2023/03/15 11:15:06;;;;;;;4.40;1.50;;;;;;;;;;5004800;28;20045;-67
2023/03/15 11:17:34;;;;;;;2.03;1.30;;;;;;;;;;5005303;28;20054;-67
2023/03/15 11:20:12;;;;;;;4.05;2.00;;;;;;;;;;4996645;28;20660;-67
2023/03/15 11:22:38;;;;;;;3.15;1.05;;;;;;;;;;5019971;28;20029;-66
2023/03/15 11:25:04;;;;;;;4.45;1.30;;;;;;;;;;5004690;28;20052;-67
2023/03/15 11:27:30;;;;;;;1.23;1.00;;;;;;;;;;5005760;28;20046;-67
2023/03/15 11:29:58;;;;;;;2.50;1.35;;;;;;;;;;5004742;28;20033;-67
2023/03/15 11:32:26;;;;;;;3.63;1.50;;;;;;;;;;5004530;28;20033;-67
2023/03/15 11:35:04;;;;;;;1.75;1.30;;;;;;;;;;5006177;28;20037;-67
2023/03/15 11:37:46;;;;;;;4.15;1.20;;;;;;;;;;4999902;28;20470;-67
2023/03/15 11:40:21;;;;;;;2.45;1.00;;;;;;;;;;5021671;28;20050;-67
2023/03/15 11:43:24;;;;;;;5.50;1.67;;;;;;;;;;5004904;28;20037;-67
2023/03/15 11:45:55;;;;;;;2.15;1.27;;;;;;;;;;4982420;28;20512;-67
2023/03/15 11:48:44;;;;;;;3.13;1.10;;;;;;;;;;4999697;28;20580;-67
2023/03/15 11:51:12;;;;;;;1.88;1.30;;;;;;;;;;4985194;28;20116;-67
2023/03/15 11:53:42;;;;;;;2.05;1.48;;;;;;;;;;5003986;28;20017;-67
2023/03/15 11:56:27;;;;;;;2.58;1.35;;;;;;;;;;4998949;28;20501;-67
2023/03/15 11:59:07;;;;;;;2.50;0.80;;;;;;;;;;5008905;28;20034;-66
2023/03/15 12:01:34;;;;;;;2.47;0.95;;;;;;;;;;5007440;28;20563;-67
2023/03/15 12:04:34;;;;;;;3.08;1.15;;;;;;;;;;4999845;28;20038;-66
2023/03/15 12:07:03;;;;;;;1.98;1.05;;;;;;;;;;4947424;29;20062;-67
2023/03/15 12:09:31;;;;;;;2.05;1.25;;;;;;;;;;4991251;28;20042;-67
2023/03/15 12:12:23;;;;;;;2.47;1.30;;;;;;;;;;5008083;28;20040;-66
2023/03/15 12:15:05;;;;;;;2.67;1.20;;;;;;;;;;4983590;28;20034;-67
2023/03/15 12:17:52;;;;;;;1.45;0.98;;;;;;;;;;4996927;28;20045;-67
2023/03/15 12:20:34;;;;;;;1.77;1.00;;;;;;;;;;4998106;28;20694;-67
2023/03/15 12:23:17;;;;;;;1.70;1.10;;;;;;;;;;5004999;28;20042;-66
2023/03/15 12:25:58;;;;;;;3.60;1.73;;;;;;;;;;5008282;28;20034;-66
2023/03/15 12:28:37;;;;;;;2.35;1.20;;;;;;;;;;5008255;28;20133;-66
2023/03/15 12:31:12;;;;;;;12.82;1.77;;;;;;;;;;5006917;28;20058;-66
2023/03/15 12:33:50;;;;;;;2.05;1.13;;;;;;;;;;5007231;28;20045;-67
2023/03/15 12:36:39;;;;;;;2.33;1.48;;;;;;;;;;4996072;28;20051;-67
2023/03/15 12:39:13;;;;;;;2.58;1.35;;;;;;;;;;5003265;28;20048;-67
2023/03/15 12:41:45;;;;;;;3.05;1.40;;;;;;;;;;5007285;28;20033;-66
2023/03/15 12:44:38;;;;;;;2.70;1.27;;;;;;;;;;5008525;28;20033;-66
2023/03/15 12:47:09;;;;;;;2.70;1.50;;;;;;;;;;5004493;28;20431;-67
2023/03/15 12:49:38;;;;;;;4.63;1.77;;;;;;;;;;5006565;28;20675;-67
2023/03/15 12:52:09;;;;;;;2.88;1.38;;;;;;;;;;5006593;28;20129;-66
2023/03/15 12:54:45;;;;;;;3.03;1.35;;;;;;;;;;5006743;28;20068;-66
2023/03/15 12:57:19;;;;;;;4.28;1.50;;;;;;;;;;5004118;28;20054;-66
2023/03/15 12:59:55;;;;;;;3.25;1.60;;;;;;;;;;5006440;28;20033;-67
2023/03/15 13:02:30;;;;;;;5.20;2.00;;;;;;;;;;5006117;28;20423;-66
2023/03/15 13:05:08;;;;;;;4.13;2.20;;;;;;;;;;5003919;28;20054;-66
2023/03/15 13:08:20;;;;;;;3.38;2.20;;;;;;;;;;5003693;28;20658;-67
2023/03/15 13:11:00;;;;;;;3.83;1.77;;;;;;;;;;4997115;28;20602;-67
2023/03/15 13:13:35;;;;;;;2.33;1.58;;;;;;;;;;5004212;28;20826;-67
2023/03/15 13:16:25;;;;;;;5.50;2.47;;;;;;;;;;5003908;28;20041;-66
2023/03/15 13:18:53;;;;;;;7.55;2.10;;;;;;;;;;5003153;28;20049;-66
2023/03/15 13:21:25;;;;;;;4.60;1.83;;;;;;;;;;5000508;28;20135;-67
2023/03/15 13:23:55;;;;;;;2.40;1.55;;;;;;;;;;5004520;28;20141;-67
2023/03/15 13:26:24;;;;;;;3.00;1.95;;;;;;;;;;5005326;28;20033;-67
2023/03/15 13:29:00;;;;;;;2.85;1.30;;;;;;;;;;4993356;28;20097;-66
2023/03/15 13:31:28;;;;;;;3.40;1.95;;;;;;;;;;5003672;28;20523;-67
2023/03/15 13:33:56;;;;;;;2.95;1.60;;;;;;;;;;5005052;28;20053;-66
2023/03/15 13:36:55;;;;;;;3.00;1.70;;;;;;;;;;5005650;28;20030;-64
2023/03/15 13:39:32;;;;;;;2.92;1.70;;;;;;;;;;5006261;28;20042;-64
2023/03/15 13:42:01;;;;;;;2.53;1.95;;;;;;;;;;5005232;28;20042;-64
2023/03/15 13:44:29;;;;;;;4.68;2.13;;;;;;;;;;5005923;28;20030;-64
2023/03/15 13:46:55;;;;;;;3.63;2.10;;;;;;;;;;5005006;28;20030;-64
2023/03/15 13:49:21;;;;;;;5.70;2.15;;;;;;;;;;5006367;28;20042;-64
2023/03/15 13:51:48;;;;;;;6.32;2.40;;;;;;;;;;5004391;28;20040;-65
2023/03/15 13:54:30;;;;;;;3.20;1.83;;;;;;;;;;5004057;28;20037;-64
2023/03/15 13:57:14;;;;;;;3.67;2.25;;;;;;;;;;5004158;28;20072;-64
2023/03/15 13:59:42;;;;;;;5.05;2.70;;;;;;;;;;5004725;28;20030;-65
2023/03/15 14:02:18;;;;;;;7.68;2.33;;;;;;;;;;5003173;28;20022;-64
2023/03/15 14:04:50;;;;;;;3.60;2.42;;;;;;;;;;4998602;28;20080;-64
2023/03/15 14:07:36;;;;;;;4.95;2.20;;;;;;;;;;4994969;28;20040;-64
2023/03/15 14:10:19;;;;;;;5.95;2.33;;;;;;;;;;5004875;28;20049;-65
2023/03/15 14:12:45;;;;;;;;;;;;;;;;;;5004768;28;20041;-64
2023/03/15 14:15:17;;;;;;;4.28;2.20;;;;;;;;;;5003174;28;19917;-65
2023/03/15 14:17:58;;;;;;;4.68;2.50;;;;;;;;;;4985300;28;20173;-68
2023/03/15 14:20:28;;;;;;;2.90;1.95;;;;;;;;;;4993365;28;20026;-68
2023/03/15 14:22:57;;;;;;;2.45;1.60;;;;;;;;;;4994956;28;20107;-67
2023/03/15 14:25:23;;;;;;;5.85;2.28;;;;;;;;;;4996071;28;20044;-69
2023/03/15 14:27:49;;;;;;;3.75;1.90;;;;;;;;;;4996612;28;20038;-67
2023/03/15 14:30:24;;;;;;;7.13;2.60;;;;;;;;;;4992697;28;20859;-66
2023/03/15 14:32:56;;;;;;;5.60;2.25;;;;;;;;;;5000118;28;20031;-66
2023/03/15 14:35:38;;;;;;;4.70;1.70;;;;;;;;;;5016208;28;20045;-65
2023/03/15 14:38:20;;;;;;;2.47;1.70;;;;;;;;;;4996946;28;20050;-65
2023/03/15 14:40:47;;;;;;;3.58;2.03;;;;;;;;;;5005109;28;20038;-65
2023/03/15 14:43:12;;;;;;;3.15;1.88;;;;;;;;;;5004969;28;20034;-65
2023/03/15 14:45:40;;;;;;;2.28;1.42;;;;;;;;;;5003398;28;20048;-65
2023/03/15 14:48:26;;;;;;;4.45;1.70;;;;;;;;;;5000077;28;20062;-66
2023/03/15 14:50:52;;;;;;;3.70;1.98;;;;;;;;;;5000850;28;20104;-65
2023/03/15 14:53:19;;;;;;;3.38;1.80;;;;;;;;;;5004734;28;20033;-65
2023/03/15 14:55:45;;;;;;;3.15;1.73;;;;;;;;;;5002989;28;20466;-65
2023/03/15 14:58:18;;;;;;;4.28;2.00;;;;;;;;;;5004805;28;20042;-65